sensor_id;sensor_type;location;lat;lon;timestamp;pressure;altitude;pressure_sealevel;temperature;humidity
51299;BME280;37382;45.192;9.790;2023-07-22T00:00:06;100730.66;;;23.26;100.00
51299;BME280;37382;45.192;9.790;2023-07-22T00:02:36;100730.44;;;23.02;100.00
51299;BME280;37382;45.192;9.790;2023-07-22T00:05:04;100733.53;;;22.90;100.00
51299;BME280;37382;45.192;9.790;2023-07-22T00:07:31;100720.47;;;22.91;100.00
51299;BME280;37382;45.192;9.790;2023-07-22T00:09:59;100730.75;;;22.90;100.00
51299;BME280;37382;45.192;9.790;2023-07-22T00:12:27;100732.06;;;23.19;100.00
51299;BME280;37382;45.192;9.790;2023-07-22T00:14:54;100723.75;;;23.24;100.00
51299;BME280;37382;45.192;9.790;2023-07-22T00:17:21;100721.28;;;23.07;100.00
51299;BME280;37382;45.192;9.790;2023-07-22T00:19:50;100724.91;;;22.87;100.00
51299;BME280;37382;45.192;9.790;2023-07-22T00:22:18;100719.44;;;22.61;100.00
51299;BME280;37382;45.192;9.790;2023-07-22T00:24:45;100714.41;;;22.68;100.00
51299;BME280;37382;45.192;9.790;2023-07-22T00:27:13;100709.94;;;22.98;100.00
51299;BME280;37382;45.192;9.790;2023-07-22T00:29:41;100703.91;;;22.60;100.00
51299;BME280;37382;45.192;9.790;2023-07-22T00:32:08;100709.16;;;22.56;100.00
51299;BME280;37382;45.192;9.790;2023-07-22T00:34:36;100706.38;;;22.77;100.00
51299;BME280;37382;45.192;9.790;2023-07-22T00:37:04;100709.66;;;22.89;100.00
51299;BME280;37382;45.192;9.790;2023-07-22T00:39:31;100708.56;;;22.90;100.00
51299;BME280;37382;45.192;9.790;2023-07-22T00:41:59;100712.16;;;22.96;100.00
51299;BME280;37382;45.192;9.790;2023-07-22T00:44:27;100707.91;;;23.24;100.00
51299;BME280;37382;45.192;9.790;2023-07-22T00:46:56;100700.75;;;23.13;100.00
51299;BME280;37382;45.192;9.790;2023-07-22T00:49:25;100711.09;;;22.71;100.00
51299;BME280;37382;45.192;9.790;2023-07-22T00:51:53;100716.06;;;22.74;100.00
51299;BME280;37382;45.192;9.790;2023-07-22T00:54:21;100710.22;;;22.97;100.00
51299;BME280;37382;45.192;9.790;2023-07-22T00:56:50;100710.22;;;22.97;100.00
51299;BME280;37382;45.192;9.790;2023-07-22T00:59:18;100713.56;;;22.73;100.00
51299;BME280;37382;45.192;9.790;2023-07-22T01:01:46;100717.22;;;22.48;100.00
51299;BME280;37382;45.192;9.790;2023-07-22T01:04:15;100714.97;;;22.09;100.00
51299;BME280;37382;45.192;9.790;2023-07-22T01:06:44;100709.44;;;22.39;100.00
51299;BME280;37382;45.192;9.790;2023-07-22T01:09:12;100706.94;;;22.07;100.00
51299;BME280;37382;45.192;9.790;2023-07-22T01:11:40;100709.97;;;21.95;100.00
51299;BME280;37382;45.192;9.790;2023-07-22T01:14:09;100713.31;;;21.97;100.00
51299;BME280;37382;45.192;9.790;2023-07-22T01:16:37;100703.06;;;22.08;100.00
51299;BME280;37382;45.192;9.790;2023-07-22T01:19:05;100711.63;;;22.17;100.00
51299;BME280;37382;45.192;9.790;2023-07-22T01:21:34;100699.16;;;22.09;100.00
51299;BME280;37382;45.192;9.790;2023-07-22T01:24:02;100687.84;;;22.47;100.00
51299;BME280;37382;45.192;9.790;2023-07-22T01:26:30;100685.03;;;22.11;100.00
51299;BME280;37382;45.192;9.790;2023-07-22T01:29:05;100690.88;;;21.99;100.00
51299;BME280;37382;45.192;9.790;2023-07-22T01:31:37;100688.91;;;21.89;100.00
51299;BME280;37382;45.192;9.790;2023-07-22T01:34:05;100685.88;;;21.85;100.00
51299;BME280;37382;45.192;9.790;2023-07-22T01:36:33;100692.75;;;21.62;100.00
51299;BME280;37382;45.192;9.790;2023-07-22T01:39:00;100703.28;;;21.71;100.00
51299;BME280;37382;45.192;9.790;2023-07-22T01:41:28;100703.81;;;21.67;100.00
51299;BME280;37382;45.192;9.790;2023-07-22T01:43:56;100709.66;;;21.81;100.00
51299;BME280;37382;45.192;9.790;2023-07-22T01:46:23;100710.50;;;21.92;100.00
51299;BME280;37382;45.192;9.790;2023-07-22T01:48:52;100713.56;;;21.85;100.00
51299;BME280;37382;45.192;9.790;2023-07-22T01:51:20;100714.06;;;21.77;100.00
51299;BME280;37382;45.192;9.790;2023-07-22T01:53:48;100717.38;;;21.74;100.00
51299;BME280;37382;45.192;9.790;2023-07-22T01:56:16;100719.31;;;21.63;100.00
51299;BME280;37382;45.192;9.790;2023-07-22T01:58:45;100715.94;;;21.51;100.00
51299;BME280;37382;45.192;9.790;2023-07-22T02:01:12;100722.34;;;21.62;100.00
51299;BME280;37382;45.192;9.790;2023-07-22T02:03:42;100717.94;;;21.61;100.00
51299;BME280;37382;45.192;9.790;2023-07-22T02:06:11;100723.75;;;21.59;100.00
51299;BME280;37382;45.192;9.790;2023-07-22T02:08:40;100716.00;;;21.61;100.00
51299;BME280;37382;45.192;9.790;2023-07-22T02:11:08;100719.38;;;21.89;100.00
51299;BME280;37382;45.192;9.790;2023-07-22T02:13:38;100715.81;;;22.25;100.00
51299;BME280;37382;45.192;9.790;2023-07-22T02:16:06;100716.34;;;22.01;100.00
51299;BME280;37382;45.192;9.790;2023-07-22T02:18:34;100718.81;;;21.92;100.00
51299;BME280;37382;45.192;9.790;2023-07-22T02:21:01;100725.66;;;21.59;100.00
51299;BME280;37382;45.192;9.790;2023-07-22T02:23:29;100728.88;;;21.40;100.00
51299;BME280;37382;45.192;9.790;2023-07-22T02:25:57;100727.53;;;21.48;100.00
51299;BME280;37382;45.192;9.790;2023-07-22T02:28:25;100735.69;;;21.70;100.00
51299;BME280;37382;45.192;9.790;2023-07-22T02:30:53;100733.44;;;21.67;100.00
51299;BME280;37382;45.192;9.790;2023-07-22T02:33:21;100737.28;;;21.56;100.00
51299;BME280;37382;45.192;9.790;2023-07-22T02:35:51;100755.16;;;21.38;100.00
51299;BME280;37382;45.192;9.790;2023-07-22T02:38:19;100755.16;;;21.32;100.00
51299;BME280;37382;45.192;9.790;2023-07-22T02:40:46;100761.00;;;21.41;100.00
51299;BME280;37382;45.192;9.790;2023-07-22T02:43:14;100772.09;;;21.46;100.00
51299;BME280;37382;45.192;9.790;2023-07-22T02:45:42;100772.34;;;21.40;100.00
51299;BME280;37382;45.192;9.790;2023-07-22T02:48:11;100778.03;;;21.65;100.00
51299;BME280;37382;45.192;9.790;2023-07-22T02:50:39;100771.91;;;21.58;100.00
51299;BME280;37382;45.192;9.790;2023-07-22T02:53:08;100767.09;;;21.38;100.00
51299;BME280;37382;45.192;9.790;2023-07-22T02:55:35;100766.75;;;21.24;100.00
51299;BME280;37382;45.192;9.790;2023-07-22T02:58:03;100763.31;;;21.60;100.00
51299;BME280;37382;45.192;9.790;2023-07-22T03:00:33;100763.78;;;21.46;100.00
51299;BME280;37382;45.192;9.790;2023-07-22T03:03:00;100771.75;;;21.32;100.00
51299;BME280;37382;45.192;9.790;2023-07-22T03:05:29;100765.97;;;21.39;100.00
51299;BME280;37382;45.192;9.790;2023-07-22T03:07:58;100761.22;;;21.29;100.00
51299;BME280;37382;45.192;9.790;2023-07-22T03:10:26;100762.59;;;21.27;100.00
51299;BME280;37382;45.192;9.790;2023-07-22T03:12:53;100764.84;;;21.35;100.00
51299;BME280;37382;45.192;9.790;2023-07-22T03:15:23;100772.88;;;21.37;100.00
51299;BME280;37382;45.192;9.790;2023-07-22T03:17:55;100780.06;;;21.32;100.00
51299;BME280;37382;45.192;9.790;2023-07-22T03:20:28;100777.53;;;21.26;100.00
51299;BME280;37382;45.192;9.790;2023-07-22T03:22:56;100784.97;;;21.25;100.00
51299;BME280;37382;45.192;9.790;2023-07-22T03:25:24;100780.66;;;21.45;100.00
51299;BME280;37382;45.192;9.790;2023-07-22T03:27:52;100787.28;;;21.39;100.00
51299;BME280;37382;45.192;9.790;2023-07-22T03:30:21;100787.78;;;21.30;100.00
51299;BME280;37382;45.192;9.790;2023-07-22T03:32:49;100795.22;;;21.25;100.00
51299;BME280;37382;45.192;9.790;2023-07-22T03:35:18;100796.59;;;21.22;100.00
51299;BME280;37382;45.192;9.790;2023-07-22T03:37:46;100795.75;;;21.22;100.00
51299;BME280;37382;45.192;9.790;2023-07-22T03:40:14;100796.09;;;21.30;100.00
51299;BME280;37382;45.192;9.790;2023-07-22T03:43:02;100814.53;;;21.14;100.00
51299;BME280;37382;45.192;9.790;2023-07-22T03:45:30;100820.13;;;21.25;100.00
51299;BME280;37382;45.192;9.790;2023-07-22T03:47:59;100816.44;;;21.52;100.00
51299;BME280;37382;45.192;9.790;2023-07-22T03:50:28;100815.22;;;21.37;100.00
51299;BME280;37382;45.192;9.790;2023-07-22T03:52:56;100813.03;;;21.44;100.00
51299;BME280;37382;45.192;9.790;2023-07-22T03:55:23;100827.53;;;21.57;100.00
51299;BME280;37382;45.192;9.790;2023-07-22T03:57:52;100827.00;;;21.60;100.00
51299;BME280;37382;45.192;9.790;2023-07-22T04:00:20;100817.06;;;21.64;100.00
51299;BME280;37382;45.192;9.790;2023-07-22T04:02:49;100823.19;;;21.81;100.00
51299;BME280;37382;45.192;9.790;2023-07-22T04:05:16;100821.88;;;21.94;100.00
51299;BME280;37382;45.192;9.790;2023-07-22T04:07:46;100830.75;;;22.01;100.00
51299;BME280;37382;45.192;9.790;2023-07-22T04:10:14;100838.94;;;21.76;100.00
51299;BME280;37382;45.192;9.790;2023-07-22T04:12:41;100841.13;;;21.63;100.00
51299;BME280;37382;45.192;9.790;2023-07-22T04:15:10;100836.53;;;21.90;100.00
51299;BME280;37382;45.192;9.790;2023-07-22T04:17:37;100845.44;;;22.02;100.00
51299;BME280;37382;45.192;9.790;2023-07-22T04:20:05;100845.44;;;22.07;100.00
51299;BME280;37382;45.192;9.790;2023-07-22T04:22:35;100847.97;;;22.19;100.00
51299;BME280;37382;45.192;9.790;2023-07-22T04:25:04;100849.16;;;22.44;100.00
51299;BME280;37382;45.192;9.790;2023-07-22T04:27:32;100850.28;;;22.53;100.00
51299;BME280;37382;45.192;9.790;2023-07-22T04:29:59;100850.84;;;22.65;100.00
51299;BME280;37382;45.192;9.790;2023-07-22T04:32:27;100848.63;;;22.72;100.00
51299;BME280;37382;45.192;9.790;2023-07-22T04:34:56;100852.53;;;22.77;100.00
51299;BME280;37382;45.192;9.790;2023-07-22T04:37:23;100853.91;;;22.64;100.00
51299;BME280;37382;45.192;9.790;2023-07-22T04:39:51;100867.78;;;22.69;100.00
51299;BME280;37382;45.192;9.790;2023-07-22T04:42:19;100861.94;;;22.65;100.00
51299;BME280;37382;45.192;9.790;2023-07-22T04:44:47;100864.19;;;22.73;100.00
51299;BME280;37382;45.192;9.790;2023-07-22T04:47:15;100871.66;;;22.73;100.00
51299;BME280;37382;45.192;9.790;2023-07-22T04:49:43;100874.97;;;22.85;100.00
51299;BME280;37382;45.192;9.790;2023-07-22T04:52:11;100874.13;;;22.59;100.00
51299;BME280;37382;45.192;9.790;2023-07-22T04:54:38;100879.16;;;22.67;100.00
51299;BME280;37382;45.192;9.790;2023-07-22T04:57:06;100886.06;;;22.85;100.00
51299;BME280;37382;45.192;9.790;2023-07-22T04:59:34;100884.41;;;22.59;100.00
51299;BME280;37382;45.192;9.790;2023-07-22T05:02:02;100885.25;;;22.64;100.00
51299;BME280;37382;45.192;9.790;2023-07-22T05:04:30;100884.09;;;22.55;100.00
51299;BME280;37382;45.192;9.790;2023-07-22T05:06:57;100883.00;;;22.71;100.00
51299;BME280;37382;45.192;9.790;2023-07-22T05:09:25;100877.75;;;22.96;100.00
51299;BME280;37382;45.192;9.790;2023-07-22T05:11:53;100889.72;;;23.12;100.00
51299;BME280;37382;45.192;9.790;2023-07-22T05:14:21;100892.19;;;23.34;100.00
51299;BME280;37382;45.192;9.790;2023-07-22T05:16:48;100897.47;;;23.40;100.00
51299;BME280;37382;45.192;9.790;2023-07-22T05:19:16;100898.03;;;23.01;100.00
51299;BME280;37382;45.192;9.790;2023-07-22T05:21:43;100901.88;;;22.90;100.00
51299;BME280;37382;45.192;9.790;2023-07-22T05:24:11;100907.44;;;23.00;100.00
51299;BME280;37382;45.192;9.790;2023-07-22T05:26:39;100901.91;;;23.26;100.00
51299;BME280;37382;45.192;9.790;2023-07-22T05:29:18;100899.13;;;23.00;100.00
51299;BME280;37382;45.192;9.790;2023-07-22T05:31:46;100902.75;;;22.90;100.00
51299;BME280;37382;45.192;9.790;2023-07-22T05:34:14;100898.03;;;23.22;100.00
51299;BME280;37382;45.192;9.790;2023-07-22T05:36:42;100900.25;;;23.30;100.00
51299;BME280;37382;45.192;9.790;2023-07-22T05:39:09;100894.59;;;23.66;100.00
51299;BME280;37382;45.192;9.790;2023-07-22T05:41:37;100907.34;;;23.93;100.00
51299;BME280;37382;45.192;9.790;2023-07-22T05:44:07;100902.56;;;24.04;100.00
51299;BME280;37382;45.192;9.790;2023-07-22T05:46:36;100894.88;;;23.85;100.00
51299;BME280;37382;45.192;9.790;2023-07-22T05:49:04;100890.97;;;23.81;100.00
51299;BME280;37382;45.192;9.790;2023-07-22T05:51:32;100898.25;;;23.67;100.00
51299;BME280;37382;45.192;9.790;2023-07-22T05:54:00;100901.44;;;24.10;100.00
51299;BME280;37382;45.192;9.790;2023-07-22T05:56:28;100914.56;;;23.89;100.00
51299;BME280;37382;45.192;9.790;2023-07-22T05:58:56;100918.72;;;23.96;100.00
51299;BME280;37382;45.192;9.790;2023-07-22T06:01:24;100916.78;;;23.92;100.00
51299;BME280;37382;45.192;9.790;2023-07-22T06:03:52;100911.97;;;24.18;100.00
51299;BME280;37382;45.192;9.790;2023-07-22T06:06:20;100914.72;;;24.23;100.00
51299;BME280;37382;45.192;9.790;2023-07-22T06:08:53;100918.88;;;24.21;100.00
51299;BME280;37382;45.192;9.790;2023-07-22T06:11:21;100910.69;;;24.50;100.00
51299;BME280;37382;45.192;9.790;2023-07-22T06:13:49;100912.13;;;24.37;100.00
51299;BME280;37382;45.192;9.790;2023-07-22T06:16:16;100907.72;;;24.31;100.00
51299;BME280;37382;45.192;9.790;2023-07-22T06:18:44;100917.94;;;24.46;100.00
51299;BME280;37382;45.192;9.790;2023-07-22T06:21:13;100905.72;;;24.47;100.00
51299;BME280;37382;45.192;9.790;2023-07-22T06:23:41;100914.25;;;24.56;100.00
51299;BME280;37382;45.192;9.790;2023-07-22T06:26:08;100921.47;;;24.67;100.00
51299;BME280;37382;45.192;9.790;2023-07-22T06:28:36;100929.25;;;24.65;100.00
51299;BME280;37382;45.192;9.790;2023-07-22T06:31:03;100936.88;;;24.89;100.00
51299;BME280;37382;45.192;9.790;2023-07-22T06:33:31;100941.56;;;24.93;100.00
51299;BME280;37382;45.192;9.790;2023-07-22T06:35:59;100939.69;;;24.83;100.00
51299;BME280;37382;45.192;9.790;2023-07-22T06:38:27;100941.69;;;24.78;100.00
51299;BME280;37382;45.192;9.790;2023-07-22T06:40:56;100943.31;;;25.18;100.00
51299;BME280;37382;45.192;9.790;2023-07-22T06:43:24;100949.09;;;25.32;100.00
51299;BME280;37382;45.192;9.790;2023-07-22T06:45:52;100943.16;;;25.39;100.00
51299;BME280;37382;45.192;9.790;2023-07-22T06:48:19;100941.03;;;25.84;100.00
51299;BME280;37382;45.192;9.790;2023-07-22T06:50:50;100949.88;;;25.67;100.00
51299;BME280;37382;45.192;9.790;2023-07-22T06:53:18;100956.16;;;25.78;100.00
51299;BME280;37382;45.192;9.790;2023-07-22T06:55:52;100953.53;;;25.87;100.00
51299;BME280;37382;45.192;9.790;2023-07-22T06:58:20;100950.22;;;25.85;100.00
51299;BME280;37382;45.192;9.790;2023-07-22T07:00:54;100951.56;;;26.17;100.00
51299;BME280;37382;45.192;9.790;2023-07-22T07:03:23;100943.88;;;26.08;100.00
51299;BME280;37382;45.192;9.790;2023-07-22T07:05:57;100954.13;;;26.13;100.00
51299;BME280;37382;45.192;9.790;2023-07-22T07:08:24;100963.78;;;25.91;100.00
51299;BME280;37382;45.192;9.790;2023-07-22T07:10:52;100966.81;;;25.71;100.00
51299;BME280;37382;45.192;9.790;2023-07-22T07:13:22;100974.25;;;26.10;100.00
51299;BME280;37382;45.192;9.790;2023-07-22T07:15:51;100970.78;;;26.18;100.00
51299;BME280;37382;45.192;9.790;2023-07-22T07:18:18;100980.84;;;26.14;100.00
51299;BME280;37382;45.192;9.790;2023-07-22T07:20:46;100979.81;;;26.10;100.00
51299;BME280;37382;45.192;9.790;2023-07-22T07:23:14;100978.38;;;26.13;100.00
51299;BME280;37382;45.192;9.790;2023-07-22T07:25:44;100977.03;;;26.10;100.00
51299;BME280;37382;45.192;9.790;2023-07-22T07:28:12;100969.69;;;26.14;100.00
51299;BME280;37382;45.192;9.790;2023-07-22T07:30:41;100972.63;;;26.04;100.00
51299;BME280;37382;45.192;9.790;2023-07-22T07:33:09;100981.09;;;26.18;100.00
51299;BME280;37382;45.192;9.790;2023-07-22T07:35:36;100975.13;;;26.49;100.00
51299;BME280;37382;45.192;9.790;2023-07-22T07:38:04;100973.63;;;26.37;100.00
51299;BME280;37382;45.192;9.790;2023-07-22T07:40:32;100970.41;;;26.87;100.00
51299;BME280;37382;45.192;9.790;2023-07-22T07:43:00;100977.72;;;26.64;100.00
51299;BME280;37382;45.192;9.790;2023-07-22T07:45:28;100977.06;;;26.91;100.00
51299;BME280;37382;45.192;9.790;2023-07-22T07:47:56;100960.97;;;27.21;100.00
51299;BME280;37382;45.192;9.790;2023-07-22T07:50:23;100960.50;;;27.33;100.00
51299;BME280;37382;45.192;9.790;2023-07-22T07:52:51;100962.44;;;27.65;100.00
51299;BME280;37382;45.192;9.790;2023-07-22T07:55:19;100958.81;;;27.65;100.00
51299;BME280;37382;45.192;9.790;2023-07-22T07:57:47;100966.81;;;27.72;100.00
51299;BME280;37382;45.192;9.790;2023-07-22T08:00:15;100962.34;;;27.71;100.00
51299;BME280;37382;45.192;9.790;2023-07-22T08:02:42;100952.75;;;27.44;100.00
51299;BME280;37382;45.192;9.790;2023-07-22T08:05:10;100953.91;;;27.43;100.00
51299;BME280;37382;45.192;9.790;2023-07-22T08:07:39;100951.34;;;27.60;100.00
51299;BME280;37382;45.192;9.790;2023-07-22T08:10:07;100945.56;;;27.57;100.00
51299;BME280;37382;45.192;9.790;2023-07-22T08:12:35;100946.72;;;27.83;100.00
51299;BME280;37382;45.192;9.790;2023-07-22T08:15:04;100945.03;;;27.55;100.00
51299;BME280;37382;45.192;9.790;2023-07-22T08:17:32;100943.28;;;27.59;100.00
51299;BME280;37382;45.192;9.790;2023-07-22T08:20:00;100945.44;;;27.48;100.00
51299;BME280;37382;45.192;9.790;2023-07-22T08:22:28;100949.97;;;28.04;100.00
51299;BME280;37382;45.192;9.790;2023-07-22T08:24:56;100932.84;;;27.78;100.00
51299;BME280;37382;45.192;9.790;2023-07-22T08:27:24;100937.28;;;28.35;100.00
51299;BME280;37382;45.192;9.790;2023-07-22T08:29:52;100937.25;;;28.49;100.00
51299;BME280;37382;45.192;9.790;2023-07-22T08:32:20;100932.84;;;28.34;100.00
51299;BME280;37382;45.192;9.790;2023-07-22T08:34:47;100931.91;;;27.69;100.00
51299;BME280;37382;45.192;9.790;2023-07-22T08:37:15;100932.25;;;28.09;100.00
51299;BME280;37382;45.192;9.790;2023-07-22T08:39:42;100931.63;;;28.26;100.00
51299;BME280;37382;45.192;9.790;2023-07-22T08:42:11;100944.03;;;28.48;100.00
51299;BME280;37382;45.192;9.790;2023-07-22T08:44:43;100942.72;;;28.82;100.00
51299;BME280;37382;45.192;9.790;2023-07-22T08:47:15;100945.59;;;29.13;100.00
51299;BME280;37382;45.192;9.790;2023-07-22T08:49:48;100946.97;;;29.02;100.00
51299;BME280;37382;45.192;9.790;2023-07-22T08:52:18;100954.47;;;28.92;100.00
51299;BME280;37382;45.192;9.790;2023-07-22T08:54:49;100942.03;;;29.21;100.00
51299;BME280;37382;45.192;9.790;2023-07-22T08:57:17;100939.31;;;28.71;100.00
51299;BME280;37382;45.192;9.790;2023-07-22T08:59:46;100929.59;;;28.91;100.00
51299;BME280;37382;45.192;9.790;2023-07-22T09:02:14;100924.19;;;28.72;100.00
51299;BME280;37382;45.192;9.790;2023-07-22T09:04:42;100926.38;;;28.98;100.00
51299;BME280;37382;45.192;9.790;2023-07-22T09:07:11;100926.03;;;29.22;100.00
51299;BME280;37382;45.192;9.790;2023-07-22T09:09:39;100936.03;;;29.14;100.00
51299;BME280;37382;45.192;9.790;2023-07-22T09:12:07;100934.81;;;29.06;100.00
51299;BME280;37382;45.192;9.790;2023-07-22T09:14:35;100942.56;;;28.87;100.00
51299;BME280;37382;45.192;9.790;2023-07-22T09:17:04;100949.31;;;29.22;100.00
51299;BME280;37382;45.192;9.790;2023-07-22T09:19:32;100934.44;;;29.22;100.00
51299;BME280;37382;45.192;9.790;2023-07-22T09:21:59;100935.94;;;29.51;100.00
51299;BME280;37382;45.192;9.790;2023-07-22T09:24:27;100937.59;;;29.52;100.00
51299;BME280;37382;45.192;9.790;2023-07-22T09:26:57;100924.84;;;29.68;100.00
51299;BME280;37382;45.192;9.790;2023-07-22T09:29:36;100920.50;;;29.62;100.00
51299;BME280;37382;45.192;9.790;2023-07-22T09:32:04;100918.72;;;29.35;100.00
51299;BME280;37382;45.192;9.790;2023-07-22T09:34:32;100918.06;;;29.69;100.00
51299;BME280;37382;45.192;9.790;2023-07-22T09:37:00;100921.53;;;29.75;100.00
51299;BME280;37382;45.192;9.790;2023-07-22T09:39:27;100911.66;;;29.77;100.00
51299;BME280;37382;45.192;9.790;2023-07-22T09:41:56;100910.50;;;29.70;100.00
51299;BME280;37382;45.192;9.790;2023-07-22T09:44:29;100909.66;;;29.69;100.00
51299;BME280;37382;45.192;9.790;2023-07-22T09:46:57;100906.66;;;30.06;100.00
51299;BME280;37382;45.192;9.790;2023-07-22T09:49:26;100911.38;;;30.45;100.00
51299;BME280;37382;45.192;9.790;2023-07-22T09:51:54;100919.94;;;30.23;100.00
51299;BME280;37382;45.192;9.790;2023-07-22T09:54:29;100920.16;;;29.95;100.00
51299;BME280;37382;45.192;9.790;2023-07-22T09:56:58;100914.66;;;28.96;100.00
51299;BME280;37382;45.192;9.790;2023-07-22T09:59:28;100934.47;;;28.49;100.00
51299;BME280;37382;45.192;9.790;2023-07-22T10:01:58;100964.31;;;27.56;100.00
51299;BME280;37382;45.192;9.790;2023-07-22T10:04:33;101041.78;;;26.93;100.00
51299;BME280;37382;45.192;9.790;2023-07-22T10:07:03;101040.34;;;25.41;100.00
51299;BME280;37382;45.192;9.790;2023-07-22T10:09:32;101035.81;;;24.55;100.00
51299;BME280;37382;45.192;9.790;2023-07-22T10:12:02;101006.25;;;23.89;100.00
51299;BME280;37382;45.192;9.790;2023-07-22T10:14:31;101021.28;;;23.62;100.00
51299;BME280;37382;45.192;9.790;2023-07-22T10:17:03;100989.34;;;23.59;100.00
51299;BME280;37382;45.192;9.790;2023-07-22T10:19:32;100991.84;;;23.56;100.00
51299;BME280;37382;45.192;9.790;2023-07-22T10:22:01;100998.22;;;23.46;100.00
51299;BME280;37382;45.192;9.790;2023-07-22T10:24:29;100987.38;;;23.70;100.00
51299;BME280;37382;45.192;9.790;2023-07-22T10:26:57;100979.97;;;24.36;100.00
51299;BME280;37382;45.192;9.790;2023-07-22T10:29:25;100968.88;;;25.31;100.00
51299;BME280;37382;45.192;9.790;2023-07-22T10:31:53;100968.84;;;25.89;100.00
51299;BME280;37382;45.192;9.790;2023-07-22T10:34:23;100965.78;;;26.39;100.00
51299;BME280;37382;45.192;9.790;2023-07-22T10:36:50;100950.09;;;26.62;100.00
51299;BME280;37382;45.192;9.790;2023-07-22T10:39:28;100938.16;;;27.33;100.00
51299;BME280;37382;45.192;9.790;2023-07-22T10:42:05;100935.09;;;27.48;100.00
51299;BME280;37382;45.192;9.790;2023-07-22T10:44:38;100937.44;;;27.88;100.00
51299;BME280;37382;45.192;9.790;2023-07-22T10:47:07;100937.00;;;28.22;100.00
51299;BME280;37382;45.192;9.790;2023-07-22T10:49:47;100935.69;;;28.56;100.00
51299;BME280;37382;45.192;9.790;2023-07-22T10:52:14;100936.03;;;28.69;100.00
51299;BME280;37382;45.192;9.790;2023-07-22T10:55:02;100937.94;;;29.05;100.00
51299;BME280;37382;45.192;9.790;2023-07-22T10:57:30;100936.72;;;29.42;100.00
51299;BME280;37382;45.192;9.790;2023-07-22T10:59:57;100936.66;;;29.56;100.00
51299;BME280;37382;45.192;9.790;2023-07-22T11:02:27;100936.72;;;29.20;100.00
51299;BME280;37382;45.192;9.790;2023-07-22T11:04:56;100951.03;;;28.96;100.00
51299;BME280;37382;45.192;9.790;2023-07-22T11:07:41;100938.06;;;29.45;100.00
51299;BME280;37382;45.192;9.790;2023-07-22T11:10:19;100950.25;;;29.18;100.00
51299;BME280;37382;45.192;9.790;2023-07-22T11:12:47;100960.38;;;28.68;100.00
51299;BME280;37382;45.192;9.790;2023-07-22T11:15:16;100960.09;;;29.60;100.00
51299;BME280;37382;45.192;9.790;2023-07-22T11:17:44;100970.88;;;29.76;100.00
51299;BME280;37382;45.192;9.790;2023-07-22T11:20:12;100965.53;;;29.88;100.00
51299;BME280;37382;45.192;9.790;2023-07-22T11:22:40;100954.69;;;30.04;100.00
51299;BME280;37382;45.192;9.790;2023-07-22T11:25:08;100954.22;;;29.79;100.00
51299;BME280;37382;45.192;9.790;2023-07-22T11:27:37;100944.53;;;30.26;100.00
51299;BME280;37382;45.192;9.790;2023-07-22T11:30:05;100950.88;;;30.58;100.00
51299;BME280;37382;45.192;9.790;2023-07-22T11:32:33;100945.41;;;30.52;100.00
51299;BME280;37382;45.192;9.790;2023-07-22T11:35:02;100939.16;;;30.91;100.00
51299;BME280;37382;45.192;9.790;2023-07-22T11:37:29;100934.03;;;30.58;100.00
51299;BME280;37382;45.192;9.790;2023-07-22T11:40:01;100931.38;;;30.87;100.00
51299;BME280;37382;45.192;9.790;2023-07-22T11:42:34;100929.91;;;30.90;100.00
51299;BME280;37382;45.192;9.790;2023-07-22T11:45:02;100928.41;;;30.40;100.00
51299;BME280;37382;45.192;9.790;2023-07-22T11:47:33;100919.16;;;30.66;100.00
51299;BME280;37382;45.192;9.790;2023-07-22T11:50:01;100916.84;;;30.85;100.00
51299;BME280;37382;45.192;9.790;2023-07-22T11:52:30;100915.81;;;31.34;100.00
51299;BME280;37382;45.192;9.790;2023-07-22T11:55:01;100910.00;;;31.39;100.00
51299;BME280;37382;45.192;9.790;2023-07-22T11:57:31;100901.78;;;31.16;100.00
51299;BME280;37382;45.192;9.790;2023-07-22T11:59:58;100902.22;;;31.45;100.00
51299;BME280;37382;45.192;9.790;2023-07-22T12:02:27;100902.09;;;31.32;100.00
51299;BME280;37382;45.192;9.790;2023-07-22T12:05:00;100902.44;;;31.78;100.00
51299;BME280;37382;45.192;9.790;2023-07-22T12:07:32;100903.72;;;31.89;100.00
51299;BME280;37382;45.192;9.790;2023-07-22T12:10:03;100901.28;;;32.09;100.00
51299;BME280;37382;45.192;9.790;2023-07-22T12:12:36;100903.72;;;31.89;100.00
51299;BME280;37382;45.192;9.790;2023-07-22T12:15:12;100897.59;;;32.17;100.00
51299;BME280;37382;45.192;9.790;2023-07-22T12:17:55;100893.94;;;32.25;100.00
51299;BME280;37382;45.192;9.790;2023-07-22T12:20:27;100892.41;;;32.49;100.00
51299;BME280;37382;45.192;9.790;2023-07-22T12:22:56;100887.41;;;32.55;100.00
51299;BME280;37382;45.192;9.790;2023-07-22T12:25:25;100880.03;;;32.62;100.00
51299;BME280;37382;45.192;9.790;2023-07-22T12:27:52;100879.41;;;32.36;97.86
51299;BME280;37382;45.192;9.790;2023-07-22T12:30:20;100873.59;;;32.83;98.32
51299;BME280;37382;45.192;9.790;2023-07-22T12:32:49;100866.22;;;32.91;98.00
51299;BME280;37382;45.192;9.790;2023-07-22T12:35:16;100871.88;;;32.91;95.40
51299;BME280;37382;45.192;9.790;2023-07-22T12:37:44;100868.31;;;33.15;96.15
51299;BME280;37382;45.192;9.790;2023-07-22T12:40:11;100875.97;;;32.93;94.69
51299;BME280;37382;45.192;9.790;2023-07-22T12:42:40;100861.31;;;33.46;91.60
51299;BME280;37382;45.192;9.790;2023-07-22T12:45:08;100872.59;;;33.00;89.72
51299;BME280;37382;45.192;9.790;2023-07-22T12:47:36;100879.50;;;32.48;89.97